Terminal Aerodrome Forecast
Issued by NWS Binghamton, NY

Home | Current Version | Previous Version | Text Only | Print | Product List | Glossary On
Versions: 1 2 3 4 5 6 7 8 9 10 11 12 13 14 15 16 17 18 19 20 21
685
FTUS41 KBGM 261729
TAFBGM
TAF
KBGM 261729Z 2618/2718 26010KT P6SM -SHRA BKN035
     FM270000 23005KT P6SM BKN050
     FM271500 23009KT P6SM BKN110=

USA.gov is the U.S. government's official web portal to all federal, state and local government web resources and services.